createdAt,value
2019-03-04T00:01:31.189Z,61.16
2019-03-04T00:04:01.197Z,61.21
2019-03-04T00:06:31.469Z,61.26
2019-03-04T00:09:01.543Z,61.29
2019-03-04T00:11:33.220Z,61.34
2019-03-04T00:14:03.250Z,61.38
2019-03-04T00:16:33.591Z,61.42
2019-03-04T00:19:04.807Z,61.47
2019-03-04T00:21:34.824Z,61.53
2019-03-04T00:24:05.512Z,61.58
2019-03-04T00:26:35.533Z,61.63
2019-03-04T00:29:05.559Z,61.65
2019-03-04T00:31:35.811Z,61.71
2019-03-04T00:34:05.907Z,61.73
2019-03-04T00:36:35.925Z,61.78
2019-03-04T00:39:10.458Z,61.82
2019-03-04T00:41:40.846Z,61.86
2019-03-04T00:44:11.110Z,61.91
2019-03-04T00:46:41.274Z,61.97
2019-03-04T00:49:11.571Z,61.99
2019-03-04T00:51:41.671Z,62.04
2019-03-04T00:54:11.661Z,62.08
2019-03-04T00:56:41.940Z,62.11
2019-03-04T00:59:12.267Z,62.15
2019-03-04T01:01:42.354Z,62.19
2019-03-04T01:04:13.063Z,62.22
2019-03-04T01:06:43.194Z,62.27
2019-03-04T01:09:15.390Z,62.31
2019-03-04T01:11:45.642Z,62.35
2019-03-04T01:14:15.710Z,62.40
2019-03-04T01:16:45.963Z,62.44
2019-03-04T01:19:16.290Z,62.48
2019-03-04T01:21:46.632Z,62.51
2019-03-04T01:24:16.982Z,62.53
2019-03-04T01:26:47.130Z,62.58
2019-03-04T01:29:18.546Z,62.60
2019-03-04T01:31:48.795Z,62.65
2019-03-04T01:34:19.222Z,62.68
2019-03-04T01:36:49.566Z,62.72
2019-03-04T01:39:20.804Z,62.76
2019-03-04T01:41:51.126Z,62.77
2019-03-04T01:44:21.454Z,62.81
2019-03-04T01:46:51.851Z,62.83
2019-03-04T01:49:22.172Z,62.88
2019-03-04T01:51:52.243Z,62.90
2019-03-04T01:54:22.275Z,62.93
2019-03-04T01:56:52.531Z,62.96
2019-03-04T01:59:22.863Z,63.01
2019-03-04T02:01:52.976Z,63.03
2019-03-04T02:04:23.286Z,63.05
2019-03-04T02:06:53.373Z,63.09
2019-03-04T02:09:23.479Z,63.11
2019-03-04T02:11:53.739Z,63.13
2019-03-04T02:14:23.813Z,63.18
2019-03-04T02:16:55.093Z,63.20
2019-03-04T02:19:25.182Z,63.24
2019-03-04T02:21:55.428Z,63.25
2019-03-04T02:24:26.078Z,63.30
2019-03-04T02:26:56.489Z,63.31
2019-03-04T02:29:26.579Z,63.34
2019-03-04T02:31:56.864Z,63.37
2019-03-04T02:34:27.266Z,63.39
2019-03-04T02:36:57.600Z,63.44
2019-03-04T02:39:27.934Z,63.48
2019-03-04T02:41:58.280Z,63.50
2019-03-04T02:44:28.390Z,63.52
2019-03-04T02:46:58.392Z,63.57
2019-03-04T02:49:28.659Z,63.58
2019-03-04T02:51:58.982Z,63.61
2019-03-04T02:54:29.076Z,63.67
2019-03-04T02:56:59.389Z,63.71
2019-03-04T02:59:29.736Z,63.72
2019-03-04T03:02:00.084Z,63.73
2019-03-04T03:04:30.402Z,63.76
2019-03-04T03:07:00.468Z,63.78
2019-03-04T03:09:31.399Z,63.84
2019-03-04T03:12:01.461Z,63.86
2019-03-04T03:14:31.735Z,63.89
2019-03-04T03:17:02.069Z,63.91
2019-03-04T03:19:32.524Z,63.95
2019-03-04T03:22:02.862Z,63.98
2019-03-04T03:24:33.203Z,64.00
2019-03-04T03:27:03.568Z,64.03
2019-03-04T03:29:33.663Z,64.04
2019-03-04T03:32:03.933Z,64.08
2019-03-04T03:34:34.307Z,64.10
2019-03-04T03:37:04.640Z,64.13
2019-03-04T03:39:34.957Z,64.15
2019-03-04T03:42:05.474Z,64.16
2019-03-04T03:44:35.834Z,64.19
2019-03-04T03:47:06.162Z,64.21
2019-03-04T03:49:36.481Z,64.25
2019-03-04T03:52:06.823Z,64.27
2019-03-04T03:54:37.207Z,64.30
2019-03-04T03:57:07.298Z,64.30
2019-03-04T03:59:37.558Z,64.33
2019-03-04T04:02:07.909Z,64.36
2019-03-04T04:04:38.333Z,64.38
2019-03-04T04:07:08.645Z,64.39
2019-03-04T04:09:38.730Z,64.40
2019-03-04T04:12:08.990Z,64.44
2019-03-04T04:14:39.317Z,64.47
2019-03-04T04:17:10.912Z,64.47
2019-03-04T04:19:41.242Z,64.48
2019-03-04T04:22:11.432Z,64.50
2019-03-04T04:24:41.438Z,64.53
2019-03-04T04:27:11.453Z,64.54
2019-03-04T04:29:41.820Z,64.55
2019-03-04T04:32:11.929Z,64.59
2019-03-04T04:34:42.194Z,64.59
2019-03-04T04:37:12.250Z,64.61
2019-03-04T04:39:42.304Z,64.63
2019-03-04T04:42:12.303Z,64.65
2019-03-04T04:44:42.590Z,64.65
2019-03-04T04:47:12.909Z,64.68
2019-03-04T04:49:42.972Z,64.71
2019-03-04T04:52:13.259Z,64.71
2019-03-04T04:54:43.576Z,64.71
2019-03-04T04:57:13.659Z,64.74
2019-03-04T04:59:43.914Z,64.75
2019-03-04T05:02:16.194Z,64.77
2019-03-04T05:04:45.998Z,64.76
2019-03-04T05:07:16.352Z,64.78
2019-03-04T05:09:46.408Z,64.79
2019-03-04T05:12:16.409Z,64.83
2019-03-04T05:14:46.696Z,64.83
2019-03-04T05:17:16.782Z,64.82
2019-03-04T05:19:46.776Z,64.83
2019-03-04T05:22:16.807Z,64.85
2019-03-04T05:24:47.061Z,64.85
2019-03-04T05:27:17.401Z,64.86
2019-03-04T05:29:47.752Z,64.86
2019-03-04T05:32:17.843Z,64.88
2019-03-04T05:34:48.304Z,64.88
2019-03-04T05:37:18.587Z,64.87
2019-03-04T05:39:48.664Z,64.87
2019-03-04T05:42:18.713Z,64.89
2019-03-04T05:44:49.029Z,64.90
2019-03-04T05:47:19.112Z,64.92
2019-03-04T05:49:49.136Z,64.91
2019-03-04T05:52:19.392Z,64.93
2019-03-04T05:54:49.537Z,64.92
2019-03-04T05:57:19.529Z,64.93
2019-03-04T05:59:49.856Z,64.95
2019-03-04T06:02:19.963Z,64.95
2019-03-04T06:04:49.958Z,64.96
2019-03-04T06:07:21.610Z,64.94
2019-03-04T06:09:51.807Z,64.95
2019-03-04T06:12:22.089Z,64.95
2019-03-04T06:14:52.451Z,64.97
2019-03-04T06:17:22.500Z,64.97
2019-03-04T06:19:52.807Z,64.99
2019-03-04T06:22:22.899Z,65.01
2019-03-04T06:24:52.894Z,64.99
2019-03-04T06:27:22.887Z,64.99
2019-03-04T06:29:53.024Z,64.99
2019-03-04T06:32:23.275Z,64.99
2019-03-04T06:34:53.656Z,64.98
2019-03-04T06:37:23.969Z,64.99
2019-03-04T06:39:54.092Z,64.96
2019-03-04T06:42:24.083Z,64.96
2019-03-04T06:44:54.138Z,64.94
2019-03-04T06:47:24.395Z,64.92
2019-03-04T06:49:54.482Z,64.92
2019-03-04T06:52:26.056Z,64.89
2019-03-04T06:55:03.679Z,64.86
2019-03-04T06:57:34.073Z,64.87
2019-03-04T07:00:07.394Z,64.86
2019-03-04T07:02:45.986Z,64.85
2019-03-04T07:05:50.356Z,64.85
2019-03-04T07:08:40.558Z,64.82
2019-03-04T07:11:10.911Z,64.79
2019-03-04T07:13:41.254Z,64.80
2019-03-04T07:16:11.465Z,64.77
2019-03-04T07:18:41.782Z,64.72
2019-03-04T07:21:11.890Z,64.71
2019-03-04T07:23:42.193Z,64.70
2019-03-04T07:26:12.539Z,64.66
2019-03-04T07:28:42.851Z,64.64
2019-03-04T07:31:13.257Z,64.62
2019-03-04T07:33:43.351Z,64.59
2019-03-04T07:36:13.348Z,64.54
2019-03-04T07:38:51.619Z,64.51
2019-03-04T07:41:21.662Z,64.45
2019-03-04T07:43:53.335Z,64.42
2019-03-04T07:46:23.354Z,64.39
2019-03-04T07:48:53.354Z,64.33
2019-03-04T07:51:25.805Z,64.29
2019-03-04T07:53:57.527Z,64.24
2019-03-04T07:56:27.545Z,64.20
2019-03-04T07:58:57.570Z,64.18
2019-03-04T08:01:27.867Z,64.14
2019-03-04T08:03:57.917Z,64.09
2019-03-04T08:06:27.920Z,64.07
2019-03-04T08:09:20.253Z,64.02
2019-03-04T08:12:03.492Z,64.00
2019-03-04T08:14:33.850Z,63.95
2019-03-04T08:17:05.474Z,63.89
2019-03-04T08:19:35.549Z,63.81
2019-03-04T08:22:05.632Z,63.77
2019-03-04T08:24:35.632Z,63.71
2019-03-04T08:27:05.684Z,63.70
2019-03-04T08:29:37.129Z,63.60
2019-03-04T08:32:07.107Z,63.42
2019-03-04T08:34:39.460Z,63.22
2019-03-04T08:37:09.235Z,62.98
2019-03-04T08:39:40.671Z,62.76
2019-03-04T08:42:11.061Z,62.51
2019-03-04T08:44:41.463Z,62.19
2019-03-04T08:47:13.533Z,61.82
2019-03-04T08:49:43.528Z,61.42
2019-03-04T08:52:13.897Z,60.95
2019-03-04T08:54:44.219Z,60.50
2019-03-04T08:57:14.651Z,60.05
2019-03-04T08:59:44.734Z,59.60
2019-03-04T09:02:18.292Z,59.14
2019-03-04T09:04:48.468Z,58.74
2019-03-04T09:07:18.736Z,58.32
2019-03-04T09:09:49.081Z,57.88
2019-03-04T09:12:20.597Z,57.49
2019-03-04T09:14:53.082Z,57.10
2019-03-04T09:17:25.227Z,56.71
2019-03-04T09:19:55.525Z,56.32
2019-03-04T09:22:27.332Z,55.93
2019-03-04T09:24:57.323Z,55.58
2019-03-04T09:27:27.604Z,55.22
2019-03-04T09:29:57.694Z,54.82
2019-03-04T09:32:31.181Z,54.46
2019-03-04T09:35:02.182Z,54.11
2019-03-04T09:37:32.262Z,53.72
2019-03-04T09:40:06.742Z,53.36
2019-03-04T09:42:38.515Z,53.01
2019-03-04T09:45:15.544Z,52.63
2019-03-04T09:47:45.882Z,52.30
2019-03-04T09:50:23.497Z,51.94
2019-03-04T09:52:53.573Z,51.62
2019-03-04T09:55:23.773Z,51.29
2019-03-04T09:57:53.823Z,50.96
2019-03-04T10:00:33.637Z,50.66
2019-03-04T10:03:43.694Z,50.36
2019-03-04T10:06:42.452Z,50.06
2019-03-04T10:09:40.785Z,49.67
2019-03-04T10:12:21.670Z,49.38
2019-03-04T10:15:24.655Z,49.08
2019-03-04T10:18:25.269Z,48.81
2019-03-04T10:21:24.263Z,48.49
2019-03-04T10:24:15.556Z,48.23
2019-03-04T10:26:48.829Z,47.94
2019-03-04T10:29:26.335Z,47.70
2019-03-04T10:32:11.827Z,47.52
2019-03-04T10:35:13.257Z,47.35
2019-03-04T10:38:22.345Z,47.16
2019-03-04T10:41:00.609Z,46.92
2019-03-04T10:43:34.909Z,46.74
2019-03-04T10:46:18.047Z,46.64
2019-03-04T10:48:48.336Z,46.57
2019-03-04T10:51:19.660Z,46.50
2019-03-04T10:53:51.439Z,46.47
2019-03-04T10:56:24.735Z,46.41
2019-03-04T10:58:54.825Z,46.40
2019-03-04T11:01:30.316Z,46.38
2019-03-04T11:04:00.611Z,46.34
2019-03-04T11:06:31.659Z,46.33
2019-03-04T11:09:02.167Z,46.30
2019-03-04T11:11:33.872Z,46.27
2019-03-04T11:14:05.373Z,46.27
2019-03-04T11:16:35.535Z,46.23
2019-03-04T11:19:09.718Z,46.20
2019-03-04T11:21:39.782Z,46.15
2019-03-04T11:24:11.440Z,46.13
2019-03-04T11:26:44.139Z,46.08
2019-03-04T11:29:15.910Z,46.05
2019-03-04T11:31:45.970Z,46.02
2019-03-04T11:34:16.233Z,45.98
2019-03-04T11:36:49.475Z,45.93
2019-03-04T11:39:25.611Z,45.89
2019-03-04T11:41:55.612Z,45.87
2019-03-04T11:44:27.219Z,45.81
2019-03-04T11:46:57.571Z,45.78
2019-03-04T11:49:27.802Z,45.72
2019-03-04T11:51:58.241Z,45.70
2019-03-04T11:54:28.305Z,45.66
2019-03-04T11:56:58.567Z,45.65
2019-03-04T11:59:28.640Z,45.60
2019-03-04T12:02:00.605Z,45.57
2019-03-04T12:04:30.623Z,45.51
2019-03-04T12:07:01.078Z,45.48
2019-03-04T12:09:31.508Z,45.46
2019-03-04T12:12:01.848Z,45.44
2019-03-04T12:14:32.177Z,45.41
2019-03-04T12:17:02.581Z,45.37
2019-03-04T12:19:33.366Z,45.34
2019-03-04T12:22:03.639Z,45.31
2019-03-04T12:24:35.379Z,45.31
2019-03-04T12:27:05.462Z,45.28
2019-03-04T12:29:35.717Z,45.28
2019-03-04T12:32:07.457Z,45.25
2019-03-04T12:34:38.972Z,45.21
2019-03-04T12:37:08.970Z,45.21
2019-03-04T12:39:39.322Z,45.17
2019-03-04T12:42:09.687Z,45.14
2019-03-04T12:53:17.709Z,45.11
2019-03-04T12:55:47.826Z,45.11
2019-03-04T12:58:18.087Z,45.08
2019-03-04T13:00:48.434Z,45.04
2019-03-04T13:03:21.918Z,45.01
2019-03-04T13:05:52.282Z,44.97
2019-03-04T13:08:22.345Z,44.92
2019-03-04T13:10:52.633Z,44.87
2019-03-04T13:13:22.724Z,44.81
2019-03-04T13:15:52.720Z,44.76
2019-03-04T13:18:22.998Z,44.70
2019-03-04T13:20:53.070Z,44.67
2019-03-04T13:23:25.172Z,44.65
2019-03-04T13:25:55.581Z,44.61
2019-03-04T13:28:30.875Z,44.54
2019-03-04T13:31:01.242Z,44.49
2019-03-04T13:33:31.346Z,44.46
2019-03-04T13:36:01.435Z,44.41
2019-03-04T13:38:31.664Z,44.39
2019-03-04T13:41:01.730Z,44.34
2019-03-04T13:43:33.726Z,44.32
2019-03-04T13:46:05.534Z,44.28
2019-03-04T13:48:41.486Z,44.25
2019-03-04T13:51:11.519Z,44.22
2019-03-04T13:53:41.779Z,44.18
2019-03-04T13:56:12.300Z,44.16
2019-03-04T13:58:43.337Z,44.13
2019-03-04T14:01:13.619Z,44.12
2019-03-04T14:03:45.128Z,44.07
2019-03-04T14:06:17.064Z,44.08
2019-03-04T14:08:48.623Z,44.05
2019-03-04T14:11:19.232Z,44.04
2019-03-04T14:13:49.551Z,44.01
2019-03-04T14:16:19.894Z,43.99
2019-03-04T14:18:50.113Z,43.97
2019-03-04T14:21:21.979Z,43.95
2019-03-04T14:23:52.303Z,43.93
2019-03-04T14:26:22.655Z,43.92
2019-03-04T14:28:53.891Z,43.89
2019-03-04T14:31:23.919Z,43.85
2019-03-04T14:33:54.264Z,43.82
2019-03-04T14:36:24.591Z,43.79
2019-03-04T14:38:55.448Z,43.76
2019-03-04T14:41:25.739Z,43.74
2019-03-04T14:43:56.095Z,43.71
2019-03-04T14:46:26.402Z,43.69
2019-03-04T14:48:56.469Z,43.66
2019-03-04T14:51:26.808Z,43.65
2019-03-04T14:53:57.138Z,43.61
2019-03-04T14:56:27.459Z,43.59
2019-03-04T14:59:10.210Z,43.58
2019-03-04T15:01:29.708Z,43.59
2019-03-04T15:03:59.717Z,43.57
2019-03-04T15:06:30.018Z,43.56
2019-03-04T15:09:00.352Z,43.54
2019-03-04T15:11:31.949Z,43.51
2019-03-04T15:14:02.034Z,43.50
2019-03-04T15:16:32.302Z,43.47
2019-03-04T15:19:02.411Z,43.45
2019-03-04T15:21:34.523Z,43.41
2019-03-04T15:24:04.837Z,43.39
2019-03-04T15:26:42.945Z,43.37
2019-03-04T15:29:07.333Z,43.37
2019-03-04T15:31:37.379Z,43.34
2019-03-04T15:34:07.534Z,43.33
2019-03-04T15:36:37.537Z,43.32
2019-03-04T15:39:09.446Z,43.30
2019-03-04T15:41:40.399Z,43.30
2019-03-04T15:44:10.732Z,43.28
2019-03-04T15:46:40.740Z,43.31
2019-03-04T15:49:13.520Z,43.28
2019-03-04T15:51:45.028Z,43.27
2019-03-04T15:54:17.099Z,43.28
2019-03-04T15:56:47.464Z,43.28
2019-03-04T15:59:18.823Z,43.27
2019-03-04T16:01:48.811Z,43.26
2019-03-04T16:04:19.073Z,43.27
2019-03-04T16:06:49.421Z,43.25
2019-03-04T16:09:21.374Z,43.23
2019-03-04T16:11:51.763Z,43.23
2019-03-04T16:14:21.832Z,43.20
2019-03-04T16:16:52.106Z,43.18
2019-03-04T16:19:23.689Z,43.15
2019-03-04T16:21:53.808Z,43.15
2019-03-04T16:24:24.071Z,43.11
2019-03-04T16:27:01.388Z,43.10
2019-03-04T16:29:37.157Z,43.07
2019-03-04T16:32:03.530Z,43.05
2019-03-04T16:34:33.478Z,43.02
2019-03-04T16:37:05.628Z,43.02
2019-03-04T16:39:35.949Z,43.01
2019-03-04T16:42:06.373Z,42.99
2019-03-04T16:44:36.371Z,42.99
2019-03-04T16:47:06.392Z,42.98
2019-03-04T16:49:37.223Z,42.98
2019-03-04T16:52:07.304Z,42.96
2019-03-04T16:54:37.441Z,42.98
2019-03-04T16:57:10.895Z,43.00
2019-03-04T16:59:40.929Z,43.00
2019-03-04T17:02:10.977Z,43.01
2019-03-04T17:04:42.316Z,43.01
2019-03-04T17:07:12.744Z,43.04
2019-03-04T17:09:42.841Z,43.05
2019-03-04T17:12:12.895Z,43.06
2019-03-04T17:14:43.265Z,43.07
2019-03-04T17:17:14.468Z,43.08
2019-03-04T17:19:44.901Z,43.11
2019-03-04T17:22:15.351Z,43.15
2019-03-04T17:24:46.143Z,43.15
2019-03-04T17:27:16.412Z,43.18
2019-03-04T17:29:46.827Z,43.20
2019-03-04T17:32:17.155Z,43.20
2019-03-04T17:34:47.253Z,43.21
2019-03-04T17:37:17.419Z,43.23
2019-03-04T17:39:47.704Z,43.25
2019-03-04T17:42:18.125Z,43.26
2019-03-04T17:44:49.286Z,43.27
2019-03-04T17:47:20.461Z,43.28
2019-03-04T17:49:50.746Z,43.31
2019-03-04T17:52:21.072Z,43.32
2019-03-04T17:54:51.167Z,43.34
2019-03-04T17:57:21.174Z,43.33
2019-03-04T17:59:51.459Z,43.34
2019-03-04T18:02:21.788Z,43.34
2019-03-04T18:04:51.911Z,43.35
2019-03-04T18:07:22.158Z,43.36
2019-03-04T18:09:52.292Z,43.38
2019-03-04T18:12:22.289Z,43.39
2019-03-04T18:14:52.352Z,43.38
2019-03-04T18:17:22.356Z,43.39
2019-03-04T18:19:52.385Z,43.39
2019-03-04T18:22:22.386Z,43.38
2019-03-04T18:24:52.416Z,43.35
2019-03-04T18:27:22.962Z,43.37
2019-03-04T18:30:01.797Z,43.36
2019-03-04T18:32:42.730Z,43.36
2019-03-04T18:35:24.629Z,43.37
2019-03-04T18:37:57.901Z,43.32
2019-03-04T18:40:50.817Z,43.32
2019-03-04T18:43:34.017Z,43.34
2019-03-04T18:46:36.334Z,43.32
2019-03-04T18:49:06.432Z,43.31
2019-03-04T18:51:37.679Z,43.29
2019-03-04T18:54:09.589Z,43.27
2019-03-04T18:56:39.732Z,43.26
2019-03-04T18:59:10.096Z,43.24
2019-03-04T19:01:40.359Z,43.20
2019-03-04T19:04:10.445Z,43.18
2019-03-04T19:06:40.558Z,43.17
2019-03-04T19:09:10.841Z,43.13
2019-03-04T19:11:41.317Z,43.11
2019-03-04T19:14:11.421Z,43.07
2019-03-04T19:16:41.432Z,43.03
2019-03-04T19:19:11.513Z,42.99
2019-03-04T19:21:41.882Z,42.93
2019-03-04T19:24:12.457Z,42.87
2019-03-04T19:26:43.592Z,42.83
2019-03-04T19:29:14.188Z,42.75
2019-03-04T19:31:44.800Z,42.70
2019-03-04T19:34:17.373Z,42.64
2019-03-04T19:36:47.679Z,42.55
2019-03-04T19:39:18.425Z,42.50
2019-03-04T19:41:48.501Z,42.44
2019-03-04T19:44:18.530Z,42.38
2019-03-04T19:46:48.788Z,42.32
2019-03-04T19:49:20.875Z,42.26
2019-03-04T19:51:51.944Z,42.19
2019-03-04T19:54:22.230Z,42.12
2019-03-04T19:56:52.562Z,42.04
2019-03-04T19:59:22.933Z,42.00
2019-03-04T20:01:52.981Z,41.92
2019-03-04T20:04:22.977Z,41.87
2019-03-04T20:06:53.661Z,41.80
2019-03-04T20:09:25.351Z,41.74
2019-03-04T20:11:56.255Z,41.68
2019-03-04T20:14:26.324Z,41.62
2019-03-04T20:16:56.664Z,41.57
2019-03-04T20:19:27.058Z,41.51
2019-03-04T20:21:57.135Z,41.46
2019-03-04T20:24:27.402Z,41.41
2019-03-04T20:26:57.757Z,41.37
2019-03-04T20:29:28.092Z,41.34
2019-03-04T20:31:59.500Z,41.27
2019-03-04T20:34:29.591Z,41.22
2019-03-04T20:36:59.857Z,41.18
2019-03-04T20:39:29.846Z,41.14
2019-03-04T20:42:00.822Z,41.08
2019-03-04T20:44:31.675Z,41.06
2019-03-04T20:47:01.938Z,41.01
2019-03-04T20:49:32.034Z,40.97
2019-03-04T20:52:02.308Z,40.94
2019-03-04T20:54:33.909Z,40.90
2019-03-04T20:57:04.006Z,40.86
2019-03-04T20:59:34.662Z,40.81
2019-03-04T21:02:04.739Z,40.78
2019-03-04T21:04:35.108Z,40.73
2019-03-04T21:07:05.401Z,40.71
2019-03-04T21:09:36.638Z,40.67
2019-03-04T21:12:07.056Z,40.63
2019-03-04T21:14:37.453Z,40.61
2019-03-04T21:17:07.820Z,40.58
2019-03-04T21:19:37.893Z,40.57
2019-03-04T21:22:08.179Z,40.53
2019-03-04T21:24:38.254Z,40.49
2019-03-04T21:27:08.267Z,40.48
2019-03-04T21:29:46.212Z,40.44
2019-03-04T21:32:21.592Z,40.43
2019-03-04T21:35:03.287Z,40.39
2019-03-04T21:37:41.067Z,40.37
2019-03-04T21:40:20.905Z,40.33
2019-03-04T21:43:07.442Z,40.30
2019-03-04T21:45:57.284Z,40.30
2019-03-04T21:48:33.439Z,40.26
2019-03-04T21:51:12.318Z,40.24
2019-03-04T21:53:49.703Z,40.21
2019-03-04T21:56:39.875Z,40.20
2019-03-04T21:59:09.964Z,40.16
2019-03-04T22:01:59.821Z,40.14
2019-03-04T22:04:30.022Z,40.11
2019-03-04T22:07:00.415Z,40.10
2019-03-04T22:09:31.134Z,40.07
2019-03-04T22:12:01.306Z,40.06
2019-03-04T22:14:31.490Z,40.04
2019-03-04T22:17:01.496Z,40.04
2019-03-04T22:19:31.765Z,40.01
2019-03-04T22:22:01.864Z,40.01
2019-03-04T22:24:32.292Z,40.01
2019-03-04T22:27:02.921Z,40.00
2019-03-04T22:29:33.261Z,40.00
2019-03-04T22:32:03.357Z,39.99
2019-03-04T22:34:33.634Z,39.99
2019-03-04T22:37:03.795Z,39.97
2019-03-04T22:39:33.994Z,39.97
2019-03-04T22:42:04.285Z,39.97
2019-03-04T22:44:34.647Z,39.96
2019-03-04T22:47:04.987Z,39.93
2019-03-04T22:49:35.065Z,39.95
2019-03-04T22:52:05.050Z,39.92
2019-03-04T22:54:35.351Z,39.92
2019-03-04T22:57:05.632Z,39.93
2019-03-04T22:59:35.958Z,39.89
2019-03-04T23:02:06.473Z,39.89
2019-03-04T23:04:37.370Z,39.89
2019-03-04T23:07:08.900Z,39.89
2019-03-04T23:09:49.676Z,39.88
2019-03-04T23:12:30.860Z,39.89
2019-03-04T23:15:00.927Z,39.90
2019-03-04T23:17:31.329Z,39.91
2019-03-04T23:20:01.325Z,39.92
2019-03-04T23:22:31.692Z,39.92
2019-03-04T23:25:01.711Z,39.90
2019-03-04T23:27:32.365Z,39.91
2019-03-04T23:30:02.707Z,39.93
2019-03-04T23:32:33.054Z,39.92
2019-03-04T23:35:03.636Z,39.96
2019-03-04T23:37:34.024Z,39.96
2019-03-04T23:40:07.483Z,39.99
2019-03-04T23:42:37.832Z,40.01
2019-03-04T23:45:12.877Z,40.02
2019-03-04T23:47:42.963Z,40.02
2019-03-04T23:50:23.724Z,40.06
2019-03-04T23:52:54.145Z,40.09
2019-03-04T23:55:24.479Z,40.13
2019-03-04T23:57:54.836Z,40.15
